Aérodrome :
LOGIN :

S'inscrire | Disclaimer

   EN    FR    IT 

 










Légende :    VFR   VFR Marginal   IFR   IFR Intensif   IFR Très Intensif
Visi : 
Plafond : 
>= 8 km
>= 3000ft
5 à 8 km
1000 à 3000 ft
1500m à 5 km
500 à 1000 ft
800 à 1500m
200 à 500 ft
< 800m
< 200 ft
Symboles :   Orages  Brouillard  Fortes neiges  Fortes précipitations  Vent > 20 kt
SIGMETs :   Divers  Orages  Givrage  Turbulence  Onde Orograph.  Cendres Volcan.






- Altitude de l'aérodrome : 171 ft
- Code IATA : EGC


LFBE - Bergerac

DERNIER METAR :
  • 031630Z AUTO 19012KT 150V210 CAVOK 11/08 Q0997 BECMG 21015G25KT

METARs EXPIRÉS :
  • 031600Z AUTO 19009KT 150V220 CAVOK 11/08 Q0998 BECMG 21015G25KT
  • 031530Z AUTO 19009KT 160V220 9999 FEW027 BKN068 OVC098 11/09 Q0998 BECMG 21015G25KT
  • 031500Z AUTO 20012KT 9999 FEW019 BKN027 OVC066 11/09 Q0999 BECMG 21015G25KT
  • 031430Z AUTO 19011KT 9999 -RA BKN019/// OVC024/// ///TCU 10/09 Q1000 BECMG 21015G25KT BKN020
  • 031400Z AUTO 19011KT 160V220 9999 -RA BKN016/// BKN022/// OVC031/// ///TCU 11/09 Q1000 BECMG 21015G25KT BKN020

TAF TAF LFBE
Valide du 03 à 12h jusqu'au 04 à 12h UTC


031100Z 0312/0412 19010KT 5000 -RA BKN020
TEMPO 0312/0313 3000 RA BR BKN006
BECMG 0313/0315 21015G25KT
TEMPO 0321/0324 23015G35KT 3000 RA BKN010
BECMG 0400/0402 9999 NSW SCT030
TEMPO 0400/0408 24015G35KT 3000 SHRA BKN010TCU



MET'MAP, la Météo Aéronautique d'un coup d'oeil ! - Copyright ORBIFLY Décembre 2007 - Disclaimer

ORBIFLY MET'MAP TEAM :

Programmation & Développement : Alexandra Zaïnal
Sur une idée originale de : Baudouin d'Aumeries
Assistance à la programmation : Marc-Olivier Méhu
Soutien technique & logistique : Manuel Goepfert

Contact : metmap@orbifly.com




SOURCES & CREDITS :

   NOAA